No se requiere un especial cuidado respecto a la situación meteorológica.   -   No hay avisos

Informes METAR

 

LEZL - Sevilla, Spain
Distancia de la estación: ENE 8km
Actualización: 21/06/2018 12:00
Despejado
Despejado
 Viento de N
Viento: N 6 km/h
Temperatura: 27°C
índice de calor: 27°C
Rocío: 14°C
Humedad: 45%
Barómetro: 1016 hPa
Resumen: Despejado
Visibilidad: mayor de 10 km
2018/06/21 10:00 LEZL 211000Z 36003KT CAVOK 27/14 Q1016 NOSIG
LEMO - Morón, Spain
Distancia de la estación: SE 43km
Actualización: 21/06/2018 12:00
Despejado
Despejado
 Viento de O
Viento: O 7 km/h
Temperatura: 26°C
Rocío: 17°C
Humedad: 58%
Barómetro: 1017 hPa
Resumen: Despejado
Visibilidad: mayor de 10 km
2018/06/21 10:00 LEMO 211000Z 28004KT 210V360 CAVOK 26/17 Q1017 NOSIG
LEJR - Jeréz, Spain
Distancia de la estación: S 71km
Actualización: 21/06/2018 12:00
Poco nuboso
Poco nuboso
 Viento de ONO
Viento: ONO 7 km/h
Temperatura: 25°C
Rocío: 17°C
Humedad: 61%
Barómetro: 1017 hPa
Nubes: Poco nuboso
Visibilidad: 10 km
Detalles de las nubes: Poco nuboso 1158 m
2018/06/21 10:00 LEJR 211000Z 29004KT 230V010 9999 FEW038 25/17 Q1017
 
LERT - Rota, Spain
Distancia de la estación: SSO 89km
Actualización: 21/06/2018 11:00
Poco nuboso
Poco nuboso
 Viento de S
Viento: S 15 km/h
Temperatura: 23°C
Rocío: 18°C
Humedad: 74%
Barómetro: 1017 hPa
Nubes: Poco nuboso
Visibilidad: 10 km
Detalles de las nubes: Poco nuboso 1067 m
2018/06/21 09:00 LERT 210900Z 19008KT 150V240 9999 FEW035 23/18 Q1017 NOSIG
LEMG - Málaga, Spain
Distancia de la estación: ESE 157km
Actualización: 21/06/2018 11:30
Despejado
Despejado
 Viento de SSE
Viento: SSE 17 km/h
Temperatura: 25°C
Rocío: 16°C
Humedad: 57%
Barómetro: 1017 hPa
Resumen: Despejado
Visibilidad: mayor de 10 km
2018/06/21 09:30 LEMG 210930Z 16009KT 130V200 CAVOK 25/16 Q1017 NOSIG
LEBA - Córdoba, Spain
Distancia de la estación: ENE 115km
Actualización: 21/06/2018 11:30
Despejado
Despejado
 Viento de E
Viento: E 15 km/h
Temperatura: 28°C
índice de calor: 28°C
Rocío: 14°C
Humedad: 42%
Barómetro: 1016 hPa
Resumen: Despejado
Visibilidad: mayor de 10 km
2018/06/21 09:30 LEBA 210930Z 09008KT 060V140 CAVOK 28/14 Q1016
 
LEGR - Granada, Spain
Distancia de la estación: E 198km
Actualización: 21/06/2018 11:30
Despejado
Despejado
 Viento de variable
Viento: variable 2 km/h
Temperatura: 27°C
Rocío: 9°C
Humedad: 32%
Barómetro: 1019 hPa
Resumen: Despejado
Visibilidad: mayor de 10 km
2018/06/21 09:30 LEGR 210930Z VRB01KT CAVOK 27/09 Q1019
LEAM - Almería, Spain
Distancia de la estación: E 326km
Actualización: 21/06/2018 11:30
Despejado
Despejado
 Viento de SO
Viento: SO 11 km/h
Temperatura: 28°C
índice de calor: 28°C
Rocío: 14°C
Humedad: 42%
Barómetro: 1016 hPa
Resumen: Despejado
Visibilidad: mayor de 10 km
2018/06/21 09:30 LEAM 210930Z 22006KT 180V250 CAVOK 28/14 Q1016
LEMD - Madrid/Barajas, Spain
Distancia de la estación: NNE 402km
Actualización: 21/06/2018 11:30
Despejado
Despejado
 Viento de SSE
Viento: SSE 9 km/h
Temperatura: 28°C
Rocío: 8°C
Humedad: 28%
Barómetro: 1020 hPa
Resumen: Despejado
Visibilidad: mayor de 10 km
2018/06/21 09:30 LEMD 210930Z 16005KT 120V240 CAVOK 28/08 Q1020 NOSIG
 
LEVD - Valladolid, Spain
Distancia de la estación: N 492km
Actualización: 21/06/2018 11:30
Parcialmente nuboso
Parcialmente nuboso
 Viento de NE
Viento: NE 9 km/h
Temperatura: 20°C
Rocío: 16°C
Humedad: 78%
Barómetro: 1021 hPa
Nubes: Parcialmente nuboso
Visibilidad: 10 km
Detalles de las nubes: Parcialmente nuboso 1219 m
2018/06/21 09:30 LEVD 210930Z 04005KT 010V070 9999 SCT040 20/16 Q1021
LEBL - Barcelona, Spain
Distancia de la estación: NE 816km
Actualización: 21/06/2018 11:30
Despejado
Despejado
 Viento de SSE
Viento: SSE 15 km/h
Temperatura: 25°C
Rocío: 17°C
Humedad: 61%
Barómetro: 1018 hPa
Resumen: Despejado
Visibilidad: mayor de 10 km
2018/06/21 09:30 LEBL 210930Z 16008KT 130V190 CAVOK 25/17 Q1018 NOSIG
LEVC - Valencia, Spain
Distancia de la estación: ENE 535km
Actualización: 21/06/2018 11:30
Despejado
Despejado
 Viento de variable
Viento: variable 2 km/h
Temperatura: 29°C
Rocío: 12°C
Humedad: 35%
Barómetro: 1018 hPa
Resumen: Despejado
Visibilidad: mayor de 10 km
2018/06/21 09:30 LEVC 210930Z VRB01KT CAVOK 29/12 Q1018 NOSIG